Time;durP1;ratioP1;P1;durP2;ratioP2;P2;SDS_P1;SDS_P2;PMS_P1;PMS_P2;Temp;Humidity;BMP_temperature;BMP_pressure;BME280_temperature;BME280_humidity;BME280_pressure;Samples;Min_cycle;Max_cycle;Signal;HPM_P1;HPM_P2
2022/10/05 00:01:19;;;;;;;11.93;7.43;;;;;;;14.02;85.76;101707.06;5053137;28;20060;-53
2022/10/05 00:03:44;;;;;;;9.40;7.43;;;;;;;14.00;85.77;101704.50;5052832;28;20068;-54
2022/10/05 00:06:11;;;;;;;12.90;7.65;;;;;;;13.99;85.72;101705.47;5051481;28;20423;-53
2022/10/05 00:08:36;;;;;;;12.02;7.22;;;;;;;13.98;85.80;101709.13;5052409;28;20025;-54
2022/10/05 00:11:10;;;;;;;10.15;7.57;;;;;;;14.00;85.47;101706.31;5052376;28;20031;-54
2022/10/05 00:13:35;;;;;;;9.55;6.47;;;;;;;13.97;85.51;101701.22;5051733;28;20383;-55
2022/10/05 00:16:13;;;;;;;10.45;7.35;;;;;;;13.97;85.81;101709.22;5052413;28;20036;-52
2022/10/05 00:18:39;;;;;;;10.50;7.90;;;;;;;13.97;85.96;101699.41;5052509;28;20501;-53
2022/10/05 00:21:21;;;;;;;11.63;7.78;;;;;;;13.97;86.56;101701.22;5050359;28;20286;-52
2022/10/05 00:23:47;;;;;;;12.10;7.93;;;;;;;13.95;86.02;101690.66;5052199;28;20120;-53
2022/10/05 00:26:24;;;;;;;12.05;7.60;;;;;;;13.92;86.60;101682.88;5052038;28;20486;-55
2022/10/05 00:28:51;;;;;;;12.70;8.15;;;;;;;13.94;86.20;101685.41;5056388;28;20092;-52
2022/10/05 00:31:23;;;;;;;11.27;8.02;;;;;;;13.93;86.54;101692.59;5055516;28;20040;-54
2022/10/05 00:33:48;;;;;;;12.80;8.13;;;;;;;13.93;86.57;101692.59;5056214;28;20036;-52
2022/10/05 00:36:14;;;;;;;9.48;7.60;;;;;;;13.92;86.69;101690.88;5056324;28;20029;-53
2022/10/05 00:38:41;;;;;;;13.27;8.73;;;;;;;13.91;86.78;101686.53;5054807;28;20033;-54
2022/10/05 00:41:33;;;;;;;10.32;8.50;;;;;;;13.93;86.55;101683.75;5056065;28;20037;-52
2022/10/05 00:44:10;;;;;;;12.02;8.32;;;;;;;13.91;86.77;101683.03;5055515;28;20029;-54
2022/10/05 00:46:45;;;;;;;13.73;7.68;;;;;;;13.88;87.25;101679.59;5055623;28;20100;-53
2022/10/05 00:49:28;;;;;;;9.50;8.30;;;;;;;13.90;87.47;101689.31;5056052;28;20035;-51
2022/10/05 00:52:07;;;;;;;13.00;8.43;;;;;;;13.87;87.52;101680.59;5090373;22;20053;-82
2022/10/05 00:54:45;;;;;;;10.52;8.30;;;;;;;13.87;87.23;101687.72;5042226;28;20561;-82
2022/10/05 00:57:21;;;;;;;11.07;8.40;;;;;;;13.85;87.29;101678.97;5037235;28;20044;-82
2022/10/05 01:00:06;;;;;;;13.82;8.55;;;;;;;13.84;87.94;101678.13;5046996;28;20068;-82
2022/10/05 01:02:55;;;;;;;14.05;8.63;;;;;;;13.83;87.37;101684.44;5049483;28;20028;-82
2022/10/05 01:05:53;;;;;;;11.77;8.50;;;;;;;13.82;88.22;101674.75;5068366;28;20035;-82
2022/10/05 01:08:19;;;;;;;11.27;8.52;;;;;;;13.80;88.03;101684.66;5042809;28;20094;-82
2022/10/05 01:11:01;;;;;;;11.30;8.23;;;;;;;13.77;87.81;101673.38;5055725;28;20025;-82
2022/10/05 01:13:44;;;;;;;12.85;9.15;;;;;;;13.77;88.42;101676.06;5054557;28;20017;-81
2022/10/05 01:16:21;;;;;;;10.80;8.85;;;;;;;13.73;88.04;101655.91;5047128;28;20108;-82
2022/10/05 01:18:46;;;;;;;11.18;8.73;;;;;;;13.77;87.74;101650.22;5055639;28;20021;-82
2022/10/05 01:21:26;;;;;;;13.13;9.53;;;;;;;13.79;87.44;101650.06;5055551;28;20365;-81
2022/10/05 01:24:20;;;;;;;10.43;8.52;;;;;;;13.78;87.78;101651.06;5050753;28;20136;-81
2022/10/05 01:27:16;;;;;;;10.00;8.13;;;;;;;13.80;87.37;101657.13;5036366;28;20034;-82
2022/10/05 01:30:03;;;;;;;14.13;9.18;;;;;;;13.74;87.89;101642.44;5055424;28;20057;-82
2022/10/05 01:32:32;;;;;;;11.48;8.65;;;;;;;13.75;88.07;101649.47;5048441;28;20060;-82
2022/10/05 01:35:56;;;;;;;13.50;9.32;;;;;;;13.74;88.02;101645.13;5054971;28;20122;-82
2022/10/05 01:38:40;;;;;;;14.98;9.65;;;;;;;13.72;87.90;101641.69;5020879;28;20105;-81
2022/10/05 01:41:33;;;;;;;12.40;9.10;;;;;;;13.69;87.75;101631.28;5044046;28;20120;-82
2022/10/05 01:44:12;;;;;;;11.20;9.00;;;;;;;13.73;88.20;101643.41;5045156;28;20384;-82
2022/10/05 01:46:44;;;;;;;11.33;9.27;;;;;;;13.69;88.16;101640.13;5053236;28;20029;-82
2022/10/05 01:49:51;;;;;;;12.43;8.80;;;;;;;13.76;87.64;101637.84;5053815;28;20037;-82
2022/10/05 01:52:42;;;;;;;10.30;8.70;;;;;;;13.73;88.34;101634.56;5036213;28;20046;-82
2022/10/05 01:55:17;;;;;;;11.30;8.48;;;;;;;13.72;88.17;101632.84;5042171;28;20053;-82
2022/10/05 01:57:54;;;;;;;8.80;7.90;;;;;;;13.73;87.89;101634.56;5050959;28;20523;-82
2022/10/05 02:00:19;;;;;;;11.60;8.32;;;;;;;13.68;88.27;101617.06;5046951;28;20032;-82
2022/10/05 02:03:09;;;;;;;11.93;8.30;;;;;;;13.72;87.74;101609.66;5052328;28;20033;-82
2022/10/05 02:05:43;;;;;;;13.85;9.75;;;;;;;13.67;88.43;101610.03;5054556;28;20021;-81
2022/10/05 02:08:18;;;;;;;11.30;8.35;;;;;;;13.68;88.17;101613.53;5043376;28;20038;-82
2022/10/05 02:10:51;;;;;;;10.93;9.25;;;;;;;13.65;87.91;101605.78;5067445;28;20056;-81
2022/10/05 02:13:42;;;;;;;14.85;9.10;;;;;;;13.68;87.89;101603.72;5047911;28;20026;-81
2022/10/05 02:16:16;;;;;;;14.57;9.18;;;;;;;13.67;88.20;101601.16;5041770;28;20044;-81
2022/10/05 02:18:51;;;;;;;11.45;8.45;;;;;;;13.57;88.57;101589.50;5067337;28;20029;-81
2022/10/05 02:21:18;;;;;;;11.90;8.95;;;;;;;13.64;88.46;101598.75;5053970;28;20090;-81
2022/10/05 02:23:45;;;;;;;11.23;8.50;;;;;;;13.61;88.30;101591.81;5054583;28;20021;-81
2022/10/05 02:26:11;;;;;;;12.25;8.63;;;;;;;13.60;88.89;101594.59;5053193;28;20035;-81
2022/10/05 02:28:40;;;;;;;12.70;8.30;;;;;;;13.61;88.50;101583.81;5054451;28;20029;-81
2022/10/05 02:31:08;;;;;;;;;;;;;;;13.71;87.23;101591.94;5054571;28;20033;-81
2022/10/05 02:33:34;;;;;;;14.32;8.57;;;;;;;13.62;88.63;101587.31;5054578;28;20020;-80
2022/10/05 02:36:24;;;;;;;14.63;8.45;;;;;;;13.66;88.34;101586.13;5051931;28;20041;-80
2022/10/05 02:39:30;;;;;;;13.68;8.63;;;;;;;13.59;88.33;101568.88;5059272;28;20064;-81
2022/10/05 02:42:24;;;;;;;10.70;8.05;;;;;;;13.62;88.60;101582.84;5054542;28;20025;-81
2022/10/05 02:45:08;;;;;;;12.48;8.45;;;;;;;13.51;88.03;101559.66;5039948;28;20052;-80
2022/10/05 02:47:45;;;;;;;12.05;8.35;;;;;;;13.58;88.37;101564.53;5043166;28;20111;-80
2022/10/05 02:50:36;;;;;;;12.27;8.23;;;;;;;13.49;88.50;101550.91;5053885;28;20021;-81
2022/10/05 02:53:20;;;;;;;11.55;8.30;;;;;;;13.61;88.25;101564.28;5047918;28;20053;-81
2022/10/05 02:56:10;;;;;;;11.18;8.00;;;;;;;13.55;88.56;101560.25;5047052;28;20108;-81
2022/10/05 02:59:01;;;;;;;13.13;8.60;;;;;;;13.41;88.72;101537.31;5067212;28;20078;-81
2022/10/05 03:01:42;;;;;;;9.77;7.95;;;;;;;13.54;89.05;101555.03;5049515;28;20048;-81
2022/10/05 03:04:26;;;;;;;12.80;8.30;;;;;;;13.56;88.80;101561.97;5052141;28;20269;-82
2022/10/05 03:07:21;;;;;;;10.57;8.07;;;;;;;13.58;88.85;101553.84;5053344;28;20029;-80
2022/10/05 03:09:56;;;;;;;11.60;7.95;;;;;;;13.51;88.98;101551.63;5040518;28;20030;-81
2022/10/05 03:12:51;;;;;;;11.13;7.55;;;;;;;13.55;88.77;101552.25;5055559;28;20075;-81
2022/10/05 03:15:35;;;;;;;9.27;7.75;;;;;;;13.50;89.06;101552.59;5073415;28;20023;-80
2022/10/05 03:18:18;;;;;;;12.35;8.20;;;;;;;13.53;88.92;101551.53;5041273;28;20491;-80
2022/10/05 03:20:57;;;;;;;10.20;7.65;;;;;;;13.43;88.84;101534.53;5057561;28;20029;-80
2022/10/05 03:23:52;;;;;;;12.25;7.78;;;;;;;13.48;88.98;101535.03;5058987;28;20091;-80
2022/10/05 03:26:20;;;;;;;9.73;7.60;;;;;;;13.45;89.34;101538.75;5040746;28;20159;-81
2022/10/05 03:28:54;;;;;;;10.25;8.30;;;;;;;13.44;90.02;101542.41;5053212;28;20029;-81
2022/10/05 03:31:34;;;;;;;12.30;8.20;;;;;;;13.42;89.56;101541.69;5053195;28;20029;-81
2022/10/05 03:34:08;;;;;;;14.45;8.30;;;;;;;13.39;89.51;101533.06;5051938;28;20095;-80
2022/10/05 03:36:48;;;;;;;12.98;8.80;;;;;;;13.36;89.96;101538.66;5052322;28;20064;-81
2022/10/05 03:39:30;;;;;;;13.30;8.32;;;;;;;13.41;89.64;101545.31;5042627;28;20036;-80
2022/10/05 03:42:13;;;;;;;11.27;8.38;;;;;;;13.41;89.46;101539.16;5053802;28;20028;-81
2022/10/05 03:45:00;;;;;;;11.10;8.23;;;;;;;13.27;90.12;101518.81;5052751;28;20029;-82
2022/10/05 03:47:44;;;;;;;11.30;8.40;;;;;;;13.41;89.46;101544.47;5052840;28;20032;-81
2022/10/05 03:50:22;;;;;;;11.32;8.15;;;;;;;13.38;90.28;101548.22;5052637;28;20035;-81
2022/10/05 03:52:56;;;;;;;13.45;9.00;;;;;;;13.37;90.03;101541.19;5065975;28;20132;-82
2022/10/05 03:55:35;;;;;;;11.45;8.38;;;;;;;13.37;90.05;101545.66;5053220;28;20464;-81
2022/10/05 03:58:08;;;;;;;12.83;8.63;;;;;;;13.32;89.99;101538.00;5051976;28;20033;-81
2022/10/05 04:00:36;;;;;;;11.32;8.25;;;;;;;13.31;89.98;101536.31;5053470;28;20056;-81
2022/10/05 04:03:11;;;;;;;11.63;8.30;;;;;;;13.36;90.04;101541.31;5061681;28;20016;-81
2022/10/05 04:05:50;;;;;;;12.40;8.73;;;;;;;13.35;90.36;101547.63;5057076;28;20029;-82
2022/10/05 04:08:47;;;;;;;12.50;8.30;;;;;;;13.36;90.33;101552.00;5045260;28;20095;-81
2022/10/05 04:11:20;;;;;;;11.85;9.23;;;;;;;13.29;90.27;101539.09;5056153;28;20025;-81
2022/10/05 04:13:49;;;;;;;16.05;9.80;;;;;;;13.31;90.26;101544.31;5047001;28;20039;-81
2022/10/05 04:16:23;;;;;;;13.23;9.85;;;;;;;13.29;90.25;101549.75;5043766;28;20545;-81
2022/10/05 04:19:04;;;;;;;12.38;9.05;;;;;;;13.30;90.20;101547.94;5056502;28;20124;-82
2022/10/05 04:21:53;;;;;;;13.90;9.10;;;;;;;13.30;90.41;101543.44;5053462;28;20047;-80
2022/10/05 04:24:30;;;;;;;14.23;9.20;;;;;;;13.28;90.44;101541.88;5055019;28;20028;-81
2022/10/05 04:27:20;;;;;;;13.35;9.38;;;;;;;13.30;90.34;101543.44;5059705;28;20029;-82
2022/10/05 04:30:07;;;;;;;9.93;8.43;;;;;;;13.29;90.40;101536.41;5049735;28;20473;-81
2022/10/05 04:32:43;;;;;;;12.82;8.82;;;;;;;13.27;90.68;101534.81;5055101;28;20017;-82
2022/10/05 04:35:45;;;;;;;13.88;9.25;;;;;;;13.30;90.74;101530.09;5056641;28;20036;-82
2022/10/05 04:38:16;;;;;;;12.82;9.48;;;;;;;13.28;90.80;101529.38;5045928;28;20037;-82
2022/10/05 04:40:59;;;;;;;10.13;8.50;;;;;;;13.26;90.62;101528.66;5055793;28;20035;-82
2022/10/05 04:43:33;;;;;;;12.32;8.65;;;;;;;13.28;90.19;101532.03;5053896;28;20056;-82
2022/10/05 04:46:23;;;;;;;12.48;7.95;;;;;;;13.28;90.40;101523.19;5056204;28;20128;-82
2022/10/05 04:49:16;;;;;;;12.95;8.25;;;;;;;13.30;89.87;101521.25;5056317;28;20175;-82
2022/10/05 04:51:50;;;;;;;12.18;7.50;;;;;;;13.26;90.22;101512.63;5054376;28;20040;-82
2022/10/05 04:54:23;;;;;;;12.00;6.97;;;;;;;13.29;89.68;101522.25;5055285;28;20462;-82
2022/10/05 04:57:00;;;;;;;12.13;6.82;;;;;;;13.29;89.47;101528.41;5043879;28;20032;-82
2022/10/05 04:59:59;;;;;;;9.15;6.63;;;;;;;13.33;89.04;101515.72;5055574;28;20435;-81
2022/10/05 05:02:30;;;;;;;;;;;;;;;13.38;88.67;101512.69;5056021;28;20025;-81
2022/10/05 05:05:19;;;;;;;7.90;6.53;;;;;;;13.33;89.02;101515.72;5054629;28;19924;-82
2022/10/05 05:08:06;;;;;;;9.10;6.65;;;;;;;13.35;88.72;101526.28;5055450;28;20041;-82
2022/10/05 05:10:50;;;;;;;10.52;6.38;;;;;;;13.34;88.71;101517.44;5055384;28;20116;-82
2022/10/05 05:13:43;;;;;;;9.43;6.43;;;;;;;13.33;88.65;101516.56;5054140;28;20029;-81
2022/10/05 05:16:20;;;;;;;10.25;6.57;;;;;;;13.29;89.16;101511.56;5042607;28;20035;-80
2022/10/05 05:19:14;;;;;;;11.02;6.50;;;;;;;13.32;89.07;101509.53;5042076;28;20556;-81
2022/10/05 05:22:16;;;;;;;9.55;6.55;;;;;;;13.35;88.76;101518.28;5054016;28;20031;-80
2022/10/05 05:25:16;;;;;;;10.45;6.05;;;;;;;13.35;88.67;101516.44;5055297;28;20021;-80
2022/10/05 05:27:56;;;;;;;9.20;6.45;;;;;;;13.29;88.88;101506.22;5044303;28;20035;-80
2022/10/05 05:30:51;;;;;;;11.13;7.10;;;;;;;13.33;88.82;101507.72;5051912;28;20054;-81
2022/10/05 05:33:26;;;;;;;8.55;6.65;;;;;;;13.30;89.30;101513.25;5056143;28;20029;-81
2022/10/05 05:36:26;;;;;;;7.97;6.55;;;;;;;13.32;88.77;101514.88;5073695;28;20020;-81
2022/10/05 05:39:19;;;;;;;8.85;6.35;;;;;;;13.29;88.98;101501.75;5042511;28;20053;-81
2022/10/05 05:41:59;;;;;;;7.97;6.32;;;;;;;13.30;89.48;101508.75;5047115;28;20047;-82
2022/10/05 05:44:28;;;;;;;8.15;6.32;;;;;;;13.28;89.18;101504.53;5055645;28;20025;-82
2022/10/05 05:47:01;;;;;;;7.93;6.35;;;;;;;13.30;89.02;101502.56;5072997;28;20036;-82
2022/10/05 05:49:59;;;;;;;8.57;6.35;;;;;;;13.30;88.75;101497.25;5069457;28;20012;-83
2022/10/05 05:52:30;;;;;;;7.18;6.22;;;;;;;13.27;89.53;101486.81;5068577;28;20072;-80
2022/10/05 05:54:58;;;;;;;8.02;6.30;;;;;;;13.27;89.55;101493.00;5060744;28;20429;-80
2022/10/05 05:57:41;;;;;;;7.88;6.80;;;;;;;13.29;89.03;101490.22;5063330;28;20085;-80
2022/10/05 06:00:17;;;;;;;8.27;6.40;;;;;;;13.28;89.40;101492.03;5060195;28;20087;-80
2022/10/05 06:03:10;;;;;;;10.30;6.30;;;;;;;13.30;89.07;101489.25;5066074;28;20025;-80
2022/10/05 06:05:43;;;;;;;7.45;5.63;;;;;;;13.29;89.23;101490.22;5062064;28;20105;-80
2022/10/05 06:08:27;;;;;;;8.77;6.30;;;;;;;13.25;89.05;101484.25;5077511;28;20070;-80
2022/10/05 06:10:57;;;;;;;7.90;6.30;;;;;;;13.28;88.82;101485.84;5055343;28;20036;-80
2022/10/05 06:13:33;;;;;;;10.18;5.57;;;;;;;13.28;89.01;101497.34;5062830;28;20032;-80
2022/10/05 06:16:11;;;;;;;10.55;6.10;;;;;;;13.29;88.82;101491.06;5060447;28;20037;-81
2022/10/05 06:18:40;;;;;;;6.80;5.90;;;;;;;13.28;89.10;101480.50;5042446;28;20108;-81
2022/10/05 06:21:24;;;;;;;9.38;5.15;;;;;;;13.29;88.93;101480.41;5050685;28;20032;-80
2022/10/05 06:23:56;;;;;;;8.90;5.15;;;;;;;13.25;88.89;101473.59;5045323;28;20025;-80
2022/10/05 06:26:55;;;;;;;7.47;5.32;;;;;;;13.33;88.73;101489.03;5053985;28;20044;-81
2022/10/05 06:29:24;;;;;;;5.47;4.97;;;;;;;13.31;88.53;101480.28;5059490;28;20052;-79
2022/10/05 06:32:01;;;;;;;9.13;5.22;;;;;;;13.33;89.10;101483.69;5062013;28;20112;-79
2022/10/05 06:34:49;;;;;;;9.77;5.13;;;;;;;13.32;89.17;101482.84;5056944;28;20081;-79
2022/10/05 06:37:34;;;;;;;6.63;5.22;;;;;;;13.35;88.88;101478.25;5051787;28;20033;-79
2022/10/05 06:40:30;;;;;;;7.88;4.93;;;;;;;13.37;88.85;101481.63;5054235;28;20083;-79
2022/10/05 06:43:13;;;;;;;6.95;5.20;;;;;;;13.32;88.84;101471.31;5048087;28;20033;-81
2022/10/05 06:45:52;;;;;;;6.53;4.93;;;;;;;13.37;88.67;101484.31;5056621;28;20116;-80
2022/10/05 06:48:30;;;;;;;6.90;4.50;;;;;;;13.38;89.51;101483.34;5058598;28;20035;-82
2022/10/05 06:51:03;;;;;;;8.50;4.85;;;;;;;13.38;88.81;101483.34;5053863;28;20020;-81
2022/10/05 06:53:37;;;;;;;6.03;4.85;;;;;;;13.41;88.95;101486.63;5068847;28;20484;-80
2022/10/05 06:56:13;;;;;;;6.00;5.40;;;;;;;13.41;88.55;101489.28;5068152;28;20032;-81
2022/10/05 06:58:47;;;;;;;5.47;4.88;;;;;;;13.43;89.55;101490.00;5063682;28;20096;-81
2022/10/05 07:01:42;;;;;;;5.43;4.93;;;;;;;13.45;89.64;101490.72;5067027;28;20096;-80
2022/10/05 07:04:26;;;;;;;6.88;4.88;;;;;;;13.47;89.01;101499.50;5069904;28;20070;-82
2022/10/05 07:07:05;;;;;;;9.48;5.28;;;;;;;13.47;88.64;101487.94;5068003;28;20036;-81
2022/10/05 07:09:36;;;;;;;8.98;5.28;;;;;;;13.53;88.54;101494.63;5061945;28;20115;-81
2022/10/05 07:12:37;;;;;;;7.45;4.85;;;;;;;13.54;88.52;101491.84;5069754;28;20036;-81
2022/10/05 07:15:32;;;;;;;7.85;5.20;;;;;;;13.58;89.23;101487.13;5021394;28;20069;-80
2022/10/05 07:18:13;;;;;;;6.55;5.70;;;;;;;13.62;88.25;101488.56;5042614;28;20036;-81
2022/10/05 07:20:54;;;;;;;8.07;5.22;;;;;;;13.65;88.50;101488.31;5048920;28;20071;-81
2022/10/05 07:23:36;;;;;;;8.93;5.63;;;;;;;13.66;88.80;101485.53;5060836;28;20383;-80
2022/10/05 07:26:16;;;;;;;6.75;5.30;;;;;;;13.68;88.28;101493.41;5054071;28;20032;-80
2022/10/05 07:28:47;;;;;;;6.60;5.13;;;;;;;13.72;88.06;101494.84;5061380;28;20435;-79
2022/10/05 07:31:17;;;;;;;6.07;5.30;;;;;;;13.74;88.06;101495.59;5055505;28;20026;-79
2022/10/05 07:33:57;;;;;;;8.73;5.78;;;;;;;13.77;88.34;101492.69;5064486;28;20059;-81
2022/10/05 07:39:41;;;;;;;9.20;5.57;;;;;;;13.84;87.34;101493.91;5056385;28;20430;-80
2022/10/05 07:42:21;;;;;;;7.40;5.18;;;;;;;13.88;87.50;101495.34;5037142;28;20033;-79
2022/10/05 07:44:57;;;;;;;10.48;5.20;;;;;;;13.92;87.25;101495.94;5059287;28;20025;-79
2022/10/05 07:47:48;;;;;;;11.50;5.70;;;;;;;13.95;87.30;101493.00;5056242;28;20032;-80
2022/10/05 07:50:26;;;;;;;8.48;5.32;;;;;;;14.00;87.89;101503.34;5054258;28;20040;-80
2022/10/05 07:53:05;;;;;;;7.72;4.90;;;;;;;14.03;87.65;101500.41;5064940;28;20072;-82
2022/10/05 07:55:33;;;;;;;;;;;;;;;14.11;87.25;101499.81;5033909;28;20487;-83
2022/10/05 07:58:20;;;;;;;8.80;4.78;;;;;;;14.11;87.45;101500.66;5033295;28;19967;-83
2022/10/05 08:01:01;;;;;;;7.45;4.90;;;;;;;14.15;87.86;101503.91;5032584;28;20046;-80
2022/10/05 08:03:54;;;;;;;6.32;5.05;;;;;;;14.20;87.54;101497.22;5033921;28;20364;-82
2022/10/05 08:06:46;;;;;;;8.30;4.47;;;;;;;14.19;86.38;101490.19;5032742;28;20094;-82
2022/10/05 08:09:39;;;;;;;6.22;4.88;;;;;;;14.29;86.68;101495.63;5062440;28;20075;-82
2022/10/05 08:12:29;;;;;;;6.28;4.80;;;;;;;14.31;87.18;101492.84;5053560;28;20033;-81
2022/10/05 08:15:02;;;;;;;9.25;4.60;;;;;;;14.37;87.01;101492.31;5053168;28;20500;-82
2022/10/05 08:17:45;;;;;;;5.85;4.78;;;;;;;14.41;87.04;101489.28;5053198;28;20068;-82
2022/10/05 08:20:44;;;;;;;5.18;4.43;;;;;;;14.47;86.56;101487.94;5053661;28;20363;-82
2022/10/05 08:23:45;;;;;;;4.82;4.18;;;;;;;14.53;86.54;101476.72;5053364;28;20025;-82
2022/10/05 08:26:28;;;;;;;5.22;4.30;;;;;;;14.59;86.18;101478.91;5053530;28;20022;-82
2022/10/05 08:29:05;;;;;;;5.00;4.00;;;;;;;14.63;85.83;101476.81;5053444;28;20029;-83
2022/10/05 08:31:33;;;;;;;6.18;3.83;;;;;;;14.70;84.70;101471.81;5053503;28;20032;-83
2022/10/05 08:34:33;;;;;;;4.43;4.03;;;;;;;14.75;85.05;101469.59;5053286;28;20025;-82
2022/10/05 08:37:05;;;;;;;9.60;4.07;;;;;;;14.78;84.99;101464.00;5053467;28;20044;-83
2022/10/05 08:39:37;;;;;;;8.40;4.13;;;;;;;14.86;85.12;101466.03;5053491;28;20048;-80
2022/10/05 08:42:10;;;;;;;6.43;4.22;;;;;;;14.89;83.86;101463.06;5053533;28;20029;-82
2022/10/05 08:45:11;;;;;;;7.32;3.90;;;;;;;14.97;84.79;101465.94;5051848;28;20036;-82
2022/10/05 08:47:49;;;;;;;6.25;3.67;;;;;;;15.04;85.11;101466.25;5055247;28;20380;-82
2022/10/05 08:50:20;;;;;;;7.05;3.70;;;;;;;15.07;84.96;101466.00;5057036;28;20029;-83
2022/10/05 08:52:54;;;;;;;8.70;4.05;;;;;;;15.13;83.48;101458.28;5056485;28;20056;-81
2022/10/05 08:56:02;;;;;;;5.50;3.63;;;;;;;15.21;83.73;101446.94;5056925;28;20025;-81
2022/10/05 08:58:49;;;;;;;6.93;3.40;;;;;;;15.27;82.66;101456.25;5045980;28;20033;-81
2022/10/05 09:01:24;;;;;;;6.28;4.10;;;;;;;15.29;83.78;101452.47;5056661;28;20036;-81
2022/10/05 09:04:18;;;;;;;5.30;3.80;;;;;;;15.38;82.61;101450.81;5056734;28;20361;-81
2022/10/05 09:07:07;;;;;;;4.43;3.80;;;;;;;15.45;82.75;101454.63;5056908;28;20040;-81
2022/10/05 09:10:02;;;;;;;5.88;3.42;;;;;;;15.52;83.07;101446.91;5057167;28;20021;-82
2022/10/05 09:12:46;;;;;;;5.88;4.45;;;;;;;15.57;82.21;101447.38;5056672;28;20032;-82
2022/10/05 09:15:27;;;;;;;7.90;3.70;;;;;;;15.61;82.10;101446.13;5056527;28;20049;-82
2022/10/05 09:18:17;;;;;;;6.30;4.30;;;;;;;15.70;81.55;101447.13;5056470;28;20412;-82
2022/10/05 09:21:01;;;;;;;6.22;3.45;;;;;;;15.76;82.17;101438.59;5056187;28;20082;-82
2022/10/05 09:23:41;;;;;;;4.57;3.65;;;;;;;15.82;82.24;101438.03;5056826;28;20472;-83
2022/10/05 09:26:41;;;;;;;9.82;3.78;;;;;;;15.87;81.35;101435.81;5041160;28;20035;-83
2022/10/05 09:29:15;;;;;;;5.97;3.22;;;;;;;15.94;81.11;101435.22;5056393;28;20102;-83
2022/10/05 09:32:07;;;;;;;4.88;3.70;;;;;;;15.96;80.80;101428.75;5054871;28;20390;-82
2022/10/05 09:34:54;;;;;;;5.10;2.92;;;;;;;16.09;80.21;101437.38;5056749;28;20400;-82
2022/10/05 09:37:54;;;;;;;4.80;3.38;;;;;;;16.15;79.97;101435.97;5056196;28;20368;-82
2022/10/05 09:40:31;;;;;;;7.35;3.17;;;;;;;16.20;79.09;101441.75;5055995;28;20029;-82
2022/10/05 09:43:15;;;;;;;6.03;3.28;;;;;;;16.29;80.03;101437.41;5056029;28;20040;-82
2022/10/05 09:46:10;;;;;;;5.60;3.30;;;;;;;16.30;79.50;101435.56;5055833;28;20104;-82
2022/10/05 09:48:44;;;;;;;3.78;3.05;;;;;;;16.38;79.10;101433.03;5055815;28;20021;-82
2022/10/05 09:51:43;;;;;;;3.33;2.75;;;;;;;16.45;79.56;101432.34;5055748;28;20029;-82
2022/10/05 09:55:00;;;;;;;5.25;3.35;;;;;;;16.51;79.51;101422.84;5055714;28;20507;-82
2022/10/05 09:57:53;;;;;;;4.32;2.90;;;;;;;16.58;78.81;101417.78;5055932;28;20464;-82
2022/10/05 10:00:39;;;;;;;5.63;3.38;;;;;;;16.62;78.31;101411.13;5070675;28;20032;-83
2022/10/05 10:03:10;;;;;;;7.50;3.17;;;;;;;16.69;78.32;101412.25;5055589;28;20036;-82
2022/10/05 10:06:05;;;;;;;5.93;3.20;;;;;;;16.70;77.96;101413.94;5055931;28;20353;-82
2022/10/05 10:08:35;;;;;;;5.57;3.10;;;;;;;16.75;77.21;101409.00;5036056;28;20025;-82
2022/10/05 10:11:15;;;;;;;3.17;2.92;;;;;;;16.79;77.22;101399.66;5035712;28;20071;-82
2022/10/05 10:13:50;;;;;;;8.05;3.00;;;;;;;16.89;77.70;101406.91;5055116;28;20029;-82
2022/10/05 10:16:57;;;;;;;3.38;3.03;;;;;;;16.99;78.10;101399.66;5051674;28;20083;-82
2022/10/05 10:19:42;;;;;;;4.65;3.00;;;;;;;16.99;76.75;101389.75;5014946;28;20108;-82
2022/10/05 10:22:26;;;;;;;5.13;3.15;;;;;;;17.14;76.52;101392.81;5061143;28;20106;-82
2022/10/05 10:25:30;;;;;;;6.28;3.00;;;;;;;17.27;77.23;101394.31;5037247;28;20037;-82
2022/10/05 10:28:08;;;;;;;6.10;3.25;;;;;;;17.34;76.22;101387.38;5051748;28;20488;-82
2022/10/05 10:30:57;;;;;;;5.22;2.70;;;;;;;17.44;76.25;101381.97;5046349;28;20063;-82
2022/10/05 10:33:51;;;;;;;4.55;2.65;;;;;;;17.54;74.94;101380.91;5045919;28;20045;-82
2022/10/05 10:36:54;;;;;;;10.02;2.85;;;;;;;17.55;75.42;101363.78;5036377;28;20025;-81
2022/10/05 10:39:33;;;;;;;5.75;2.83;;;;;;;17.67;74.57;101369.81;5041156;28;20037;-82
2022/10/05 10:42:27;;;;;;;9.00;2.80;;;;;;;17.79;74.33;101374.97;5055160;28;20103;-82
2022/10/05 10:45:04;;;;;;;5.07;2.70;;;;;;;17.82;74.58;101355.81;5038364;28;20045;-82
2022/10/05 10:47:50;;;;;;;4.93;2.80;;;;;;;17.99;73.79;101370.31;5051866;28;20112;-82
2022/10/05 10:50:37;;;;;;;7.80;3.83;;;;;;;18.03;74.12;101361.78;5054247;28;20396;-82
2022/10/05 10:53:21;;;;;;;8.38;2.80;;;;;;;18.11;73.02;101355.63;5059582;28;20052;-82
2022/10/05 10:56:05;;;;;;;6.35;3.03;;;;;;;18.18;72.57;101350.50;5070008;28;20025;-83
2022/10/05 10:58:37;;;;;;;7.18;2.70;;;;;;;18.24;71.78;101349.88;5040418;28;20029;-82
2022/10/05 11:01:20;;;;;;;4.35;2.35;;;;;;;18.32;72.41;101344.56;5062882;28;20028;-82
2022/10/05 11:03:57;;;;;;;11.07;2.63;;;;;;;18.41;71.28;101346.31;5055840;28;20484;-82
2022/10/05 11:06:50;;;;;;;7.20;2.55;;;;;;;18.55;71.90;101342.22;5057106;28;20029;-80
2022/10/05 11:09:37;;;;;;;9.98;2.35;;;;;;;18.68;69.73;101333.69;5052705;28;20049;-82
2022/10/05 11:12:23;;;;;;;6.38;2.22;;;;;;;18.67;70.23;101332.88;5042160;28;20540;-81
2022/10/05 11:14:57;;;;;;;4.93;2.30;;;;;;;18.82;70.86;101338.50;5072395;28;20043;-81
2022/10/05 11:17:50;;;;;;;10.32;2.33;;;;;;;18.87;71.71;101340.75;5052130;28;20029;-82
2022/10/05 11:20:37;;;;;;;6.32;2.03;;;;;;;18.96;70.64;101338.94;5045844;28;20041;-82
2022/10/05 11:23:20;;;;;;;7.00;2.50;;;;;;;19.01;68.97;101333.91;5043424;28;20045;-82
2022/10/05 11:25:56;;;;;;;5.30;2.10;;;;;;;19.01;68.24;101334.75;5066223;28;20453;-82
2022/10/05 11:28:22;;;;;;;6.18;2.22;;;;;;;18.97;68.15;101327.19;5048745;28;20037;-81
2022/10/05 11:31:15;;;;;;;5.38;2.13;;;;;;;18.95;69.72;101323.78;5048563;28;20029;-82
2022/10/05 11:34:11;;;;;;;5.97;2.00;;;;;;;18.97;69.32;101321.81;5048926;28;20037;-82
2022/10/05 11:36:58;;;;;;;3.47;1.80;;;;;;;19.00;70.13;101308.84;5043915;28;20029;-82
2022/10/05 11:39:23;;;;;;;5.90;1.90;;;;;;;19.07;68.41;101308.19;5047240;28;20021;-82
2022/10/05 11:42:13;;;;;;;6.40;2.37;;;;;;;19.12;69.19;101303.16;5033997;28;20044;-82
2022/10/05 11:45:11;;;;;;;5.03;1.98;;;;;;;19.22;69.62;101298.50;5037088;28;20489;-82
2022/10/05 11:47:55;;;;;;;6.57;2.10;;;;;;;19.28;68.34;101294.31;5053024;28;20488;-82
2022/10/05 11:50:34;;;;;;;7.72;2.00;;;;;;;19.29;67.91;101296.00;5053659;28;20100;-82
2022/10/05 11:53:12;;;;;;;4.72;2.22;;;;;;;19.26;67.61;101272.91;5053000;28;20045;-82
2022/10/05 11:56:03;;;;;;;7.90;2.22;;;;;;;19.34;67.41;101286.41;5053080;28;20025;-82
2022/10/05 11:58:46;;;;;;;7.40;2.60;;;;;;;19.41;68.07;101275.81;5052552;28;20400;-82
2022/10/05 12:01:25;;;;;;;12.07;2.30;;;;;;;19.47;66.78;101277.00;5052933;28;20094;-82
2022/10/05 12:04:10;;;;;;;10.02;2.25;;;;;;;19.56;67.40;101267.94;5053062;28;20033;-82
2022/10/05 12:06:59;;;;;;;7.28;1.90;;;;;;;19.57;67.18;101266.94;5052094;28;20457;-82
2022/10/05 12:09:34;;;;;;;3.90;1.80;;;;;;;19.50;66.20;101247.91;5052515;28;20029;-82
2022/10/05 12:12:17;;;;;;;4.95;1.80;;;;;;;19.48;67.18;101236.44;5057107;28;20074;-82
2022/10/05 12:15:01;;;;;;;6.88;2.20;;;;;;;19.49;67.76;101238.13;5070282;28;20375;-81
2022/10/05 12:18:05;;;;;;;5.13;1.80;;;;;;;19.49;66.15;101231.91;5052577;28;20037;-82
2022/10/05 12:20:37;;;;;;;5.32;1.75;;;;;;;19.42;67.39;101243.34;5010383;28;20444;-82
2022/10/05 12:23:34;;;;;;;4.32;1.70;;;;;;;19.45;67.33;101238.63;5069493;28;20051;-82
2022/10/05 12:26:06;;;;;;;5.00;1.48;;;;;;;19.37;65.74;101243.00;5068588;28;20398;-82
2022/10/05 12:28:40;;;;;;;3.03;1.30;;;;;;;19.39;66.95;101234.75;5054460;28;20025;-82
2022/10/05 12:31:13;;;;;;;2.97;1.50;;;;;;;19.40;65.79;101223.81;5055907;28;20031;-82
2022/10/05 12:33:55;;;;;;;8.70;1.80;;;;;;;19.48;66.37;101231.03;5055665;28;20107;-82